createdAt,value
2018-07-05T00:02:01.182Z,5.57
2018-07-05T00:04:41.035Z,5.67
2018-07-05T00:07:20.802Z,5.93
2018-07-05T00:10:00.667Z,3.30
2018-07-05T00:12:40.468Z,4.10
2018-07-05T00:15:20.178Z,6.00
2018-07-05T00:18:00.020Z,10.13
2018-07-05T00:20:39.786Z,6.23
2018-07-05T00:23:19.632Z,5.20
2018-07-05T00:25:59.401Z,8.60
2018-07-05T00:28:39.074Z,5.93
2018-07-05T00:31:18.837Z,11.17
2018-07-05T00:33:58.613Z,6.37
2018-07-05T00:36:32.478Z,4.57
2018-07-05T00:39:12.334Z,5.03
2018-07-05T00:41:52.338Z,4.83
2018-07-05T00:44:32.062Z,4.90
2018-07-05T00:47:12.006Z,6.17
2018-07-05T00:49:51.793Z,5.53
2018-07-05T00:52:31.646Z,7.30
2018-07-05T00:55:11.566Z,6.17
2018-07-05T00:57:51.310Z,7.97
2018-07-05T01:00:31.199Z,7.67
2018-07-05T01:03:11.142Z,6.37
2018-07-05T01:05:50.950Z,6.03
2018-07-05T01:08:30.760Z,8.07
2018-07-05T01:11:10.764Z,5.47
2018-07-05T01:13:50.547Z,4.50
2018-07-05T01:16:30.403Z,4.70
2018-07-05T01:19:10.255Z,5.60
2018-07-05T01:21:50.210Z,5.17
2018-07-05T01:24:30.137Z,7.70
2018-07-05T01:27:09.894Z,7.90
2018-07-05T01:29:49.827Z,5.27
2018-07-05T01:32:29.730Z,5.87
2018-07-05T01:35:09.518Z,6.43
2018-07-05T01:37:49.438Z,5.60
2018-07-05T01:40:29.193Z,8.23
2018-07-05T01:43:08.988Z,7.80
2018-07-05T01:45:48.907Z,6.10
2018-07-05T01:48:28.774Z,6.03
2018-07-05T01:51:08.634Z,8.20
2018-07-05T01:53:42.465Z,6.70
2018-07-05T01:56:22.266Z,6.27
2018-07-05T01:59:02.131Z,7.10
2018-07-05T02:01:36.020Z,5.40
2018-07-05T02:04:15.861Z,6.80
2018-07-05T02:06:55.785Z,5.70
2018-07-05T02:09:35.659Z,6.53
2018-07-05T02:12:15.394Z,8.43
2018-07-05T02:14:55.265Z,5.17
2018-07-05T02:17:35.180Z,9.50
2018-07-05T02:20:15.058Z,6.87
2018-07-05T02:22:54.942Z,7.20
2018-07-05T02:25:34.599Z,7.70
2018-07-05T02:28:14.551Z,5.80
2018-07-05T02:30:54.330Z,9.83
2018-07-05T02:33:34.205Z,5.63
2018-07-05T02:36:14.039Z,6.37
2018-07-05T02:38:59.027Z,5.80
2018-07-05T02:41:38.925Z,6.63
2018-07-05T02:44:18.689Z,6.63
2018-07-05T02:46:58.604Z,4.97
2018-07-05T02:49:38.351Z,4.43
2018-07-05T02:52:18.045Z,5.93
2018-07-05T02:54:57.805Z,6.90
2018-07-05T02:57:37.581Z,5.33
2018-07-05T03:00:17.272Z,5.20
2018-07-05T03:02:57.029Z,6.43
2018-07-05T03:05:36.946Z,5.33
2018-07-05T03:08:16.779Z,5.70
2018-07-05T03:10:56.622Z,6.93
2018-07-05T03:13:36.518Z,5.40
2018-07-05T03:16:16.578Z,8.50
2018-07-05T03:18:50.447Z,11.10
2018-07-05T03:21:30.139Z,8.07
2018-07-05T03:24:10.053Z,6.20
2018-07-05T03:26:49.730Z,7.73
2018-07-05T03:29:29.545Z,7.20
2018-07-05T03:32:09.245Z,9.07
2018-07-05T03:34:49.140Z,7.03
2018-07-05T03:37:29.015Z,6.63
2018-07-05T03:40:08.949Z,7.27
2018-07-05T03:42:48.585Z,5.70
2018-07-05T03:45:28.442Z,6.23
2018-07-05T03:48:08.429Z,7.13
2018-07-05T03:50:48.178Z,5.70
2018-07-05T03:53:28.150Z,7.73
2018-07-05T03:56:07.970Z,6.60
2018-07-05T03:58:47.695Z,6.53
2018-07-05T04:01:27.574Z,5.73
2018-07-05T04:04:07.485Z,5.03
2018-07-05T04:06:47.310Z,5.93
2018-07-05T04:09:27.131Z,5.87
2018-07-05T04:12:06.939Z,8.73
2018-07-05T04:14:46.746Z,6.33
2018-07-05T04:17:26.426Z,5.17
2018-07-05T04:20:06.337Z,8.53
2018-07-05T04:22:46.218Z,6.33
2018-07-05T04:25:20.078Z,7.10
2018-07-05T04:27:59.757Z,8.80
2018-07-05T04:30:39.585Z,10.80
2018-07-05T04:33:13.459Z,9.27
2018-07-05T04:35:53.219Z,9.97
2018-07-05T04:38:33.123Z,9.10
2018-07-05T04:41:12.930Z,7.27
2018-07-05T04:43:52.673Z,7.77
2018-07-05T04:46:32.362Z,7.73
2018-07-05T04:49:12.299Z,6.47
2018-07-05T04:51:52.150Z,7.33
2018-07-05T04:54:32.641Z,7.60
2018-07-05T04:57:12.514Z,9.57
2018-07-05T04:59:52.311Z,11.17
2018-07-05T05:02:32.128Z,8.50
2018-07-05T05:05:11.918Z,8.23
2018-07-05T05:07:54.810Z,6.50
2018-07-05T05:10:34.893Z,7.40
2018-07-05T05:13:14.954Z,6.70
2018-07-05T05:15:54.854Z,7.93
2018-07-05T05:18:35.005Z,7.60
2018-07-05T05:21:14.705Z,7.80
2018-07-05T05:23:54.545Z,7.87
2018-07-05T05:26:34.589Z,5.87
2018-07-05T05:29:14.426Z,6.17
2018-07-05T05:31:54.275Z,6.37
2018-07-05T05:34:34.094Z,6.40
2018-07-05T05:37:13.878Z,7.27
2018-07-05T05:39:53.562Z,2.87
2018-07-05T05:42:33.289Z,4.07
2018-07-05T05:45:13.101Z,5.10
2018-07-05T05:47:52.730Z,6.07
2018-07-05T05:50:32.662Z,4.27
2018-07-05T05:53:12.266Z,2.70
2018-07-05T05:55:52.180Z,4.67
2018-07-05T05:58:32.023Z,4.43
2018-07-05T06:01:11.860Z,2.43
2018-07-05T06:03:51.650Z,4.37
2018-07-05T06:06:31.261Z,2.80
2018-07-05T06:09:11.142Z,4.53
2018-07-05T06:11:50.987Z,3.73
2018-07-05T06:14:30.725Z,2.97
2018-07-05T06:17:10.525Z,4.23
2018-07-05T06:19:50.290Z,2.37
2018-07-05T06:22:29.981Z,1.97
2018-07-05T06:25:09.749Z,3.77
2018-07-05T06:27:49.570Z,3.80
2018-07-05T06:30:29.303Z,2.90
2018-07-05T06:33:09.137Z,3.63
2018-07-05T06:35:48.924Z,3.77
2018-07-05T06:38:28.649Z,3.30
2018-07-05T06:41:08.507Z,5.90
2018-07-05T06:43:48.279Z,2.27
2018-07-05T06:46:28.137Z,5.30
2018-07-05T06:49:07.945Z,4.83
2018-07-05T06:51:47.639Z,3.13
2018-07-05T06:54:27.466Z,3.70
2018-07-05T06:57:07.227Z,7.27
2018-07-05T06:59:47.090Z,3.03
2018-07-05T07:02:26.995Z,3.43
2018-07-05T07:05:06.827Z,2.60
2018-07-05T07:07:46.557Z,4.17
2018-07-05T07:10:26.468Z,3.10
2018-07-05T07:13:06.341Z,4.70
2018-07-05T07:15:46.107Z,3.97
2018-07-05T07:18:25.805Z,4.10
2018-07-05T07:21:05.679Z,3.30
2018-07-05T07:23:45.564Z,2.10
2018-07-05T07:26:25.445Z,4.97
2018-07-05T07:29:05.314Z,3.63
2018-07-05T07:31:45.153Z,3.57
2018-07-05T07:34:24.831Z,4.83
2018-07-05T07:37:04.691Z,2.70
2018-07-05T07:39:44.515Z,4.47
2018-07-05T07:42:11.958Z,3.70
2018-07-05T07:44:39.405Z,5.67
2018-07-05T07:47:06.891Z,3.00
2018-07-05T07:49:34.325Z,3.37
2018-07-05T07:52:01.790Z,6.60
2018-07-05T07:54:29.357Z,6.53
2018-07-05T07:56:56.810Z,2.50
2018-07-05T07:59:24.258Z,3.17
2018-07-05T08:01:51.973Z,5.25
2018-07-05T08:04:19.470Z,3.27
2018-07-05T08:06:46.918Z,5.97
2018-07-05T08:09:14.365Z,5.10
2018-07-05T08:11:41.802Z,5.57
2018-07-05T08:14:09.258Z,4.17
2018-07-05T08:16:36.775Z,3.53
2018-07-05T08:19:04.208Z,3.90
2018-07-05T08:21:31.686Z,3.10
2018-07-05T08:23:59.151Z,3.00
2018-07-05T08:26:26.597Z,2.03
2018-07-05T08:28:54.065Z,3.27
2018-07-05T08:31:21.548Z,2.40
2018-07-05T08:33:49.017Z,3.47
2018-07-05T08:36:16.469Z,4.00
2018-07-05T08:38:43.931Z,3.43
2018-07-05T08:41:11.461Z,4.03
2018-07-05T08:43:39.036Z,4.87
2018-07-05T08:46:06.520Z,2.80
2018-07-05T08:48:34.013Z,3.27
2018-07-05T08:51:01.516Z,3.57
2018-07-05T08:53:28.969Z,2.20
2018-07-05T08:55:56.461Z,2.17
2018-07-05T08:58:23.995Z,2.63
2018-07-05T09:00:51.425Z,3.30
2018-07-05T09:03:19.030Z,2.00
2018-07-05T09:05:46.595Z,3.13
2018-07-05T09:08:14.071Z,3.07
2018-07-05T09:10:41.514Z,2.20
2018-07-05T09:13:08.954Z,2.20
2018-07-05T09:15:36.411Z,2.43
2018-07-05T09:18:03.903Z,2.93
2018-07-05T09:20:31.330Z,2.07
2018-07-05T09:22:58.788Z,1.90
2018-07-05T09:25:26.254Z,5.17
2018-07-05T09:27:53.695Z,4.03
2018-07-05T09:30:21.140Z,3.70
2018-07-05T09:32:48.662Z,3.30
2018-07-05T09:35:16.106Z,1.40
2018-07-05T09:37:43.622Z,1.83
2018-07-05T09:40:11.081Z,2.13
2018-07-05T09:42:38.533Z,5.90
2018-07-05T09:45:06.028Z,1.53
2018-07-05T09:47:33.482Z,1.50
2018-07-05T09:50:00.987Z,0.83
2018-07-05T09:52:28.498Z,2.40
2018-07-05T09:54:55.978Z,1.70
2018-07-05T09:57:23.415Z,2.40
2018-07-05T09:59:50.905Z,3.50
2018-07-05T10:02:18.357Z,1.50
2018-07-05T10:04:45.826Z,2.03
2018-07-05T10:07:13.282Z,1.50
2018-07-05T10:09:40.735Z,1.60
2018-07-05T10:12:08.183Z,1.53
2018-07-05T10:14:35.639Z,1.40
2018-07-05T10:17:03.154Z,1.43
2018-07-05T10:19:30.671Z,3.33
2018-07-05T10:21:58.106Z,2.70
2018-07-05T10:24:25.562Z,4.17
2018-07-05T10:26:53.097Z,3.07
2018-07-05T10:29:32.914Z,1.47
2018-07-05T10:32:12.655Z,1.80
2018-07-05T10:34:40.109Z,1.43
2018-07-05T10:37:07.566Z,1.00
2018-07-05T10:39:35.061Z,1.43
2018-07-05T10:42:14.899Z,1.83
2018-07-05T10:44:54.612Z,2.83
2018-07-05T10:47:34.461Z,1.13
2018-07-05T10:50:14.098Z,1.83
2018-07-05T10:52:53.867Z,1.90
2018-07-05T10:55:33.575Z,1.60
2018-07-05T10:58:13.425Z,1.23
2018-07-05T11:00:53.211Z,1.90
2018-07-05T11:03:33.114Z,1.83
2018-07-05T11:06:12.920Z,0.90
2018-07-05T11:08:52.774Z,1.80
2018-07-05T11:11:32.502Z,0.70
2018-07-05T11:14:12.742Z,1.00
2018-07-05T11:16:52.478Z,2.07
2018-07-05T11:19:32.235Z,1.07
2018-07-05T11:22:11.969Z,1.53
2018-07-05T11:24:51.822Z,4.33
2018-07-05T11:27:31.585Z,1.23
2018-07-05T11:30:11.529Z,1.67
2018-07-05T11:32:51.234Z,1.30
2018-07-05T11:35:31.177Z,1.77
2018-07-05T11:38:10.897Z,2.13
2018-07-05T11:40:44.653Z,3.33
2018-07-05T11:43:24.497Z,3.10
2018-07-05T11:46:04.332Z,1.53
2018-07-05T11:48:44.093Z,2.47
2018-07-05T11:51:23.831Z,2.93
2018-07-05T11:54:03.590Z,5.80
2018-07-05T11:56:43.435Z,3.67
2018-07-05T11:59:23.371Z,0.80
2018-07-05T12:02:03.275Z,1.13
2018-07-05T12:04:43.178Z,1.80
2018-07-05T12:07:22.987Z,1.33
2018-07-05T12:10:02.806Z,1.63
2018-07-05T12:12:42.634Z,1.60
2018-07-05T12:15:22.481Z,2.60
2018-07-05T12:18:02.418Z,1.33
2018-07-05T12:20:42.274Z,3.13
2018-07-05T12:23:22.075Z,2.10
2018-07-05T12:26:02.058Z,1.73
2018-07-05T12:28:41.933Z,2.43
2018-07-05T12:31:21.609Z,3.27
2018-07-05T12:34:01.418Z,1.90
2018-07-05T12:36:41.137Z,2.97
2018-07-05T12:39:20.927Z,1.57
2018-07-05T12:42:00.610Z,1.93
2018-07-05T12:44:40.430Z,1.17
2018-07-05T12:47:20.213Z,2.07
2018-07-05T12:50:00.060Z,1.13
2018-07-05T12:52:39.951Z,1.77
2018-07-05T12:55:19.786Z,1.50
2018-07-05T12:57:59.706Z,1.87
2018-07-05T13:00:39.403Z,1.67
2018-07-05T13:03:19.229Z,1.57
2018-07-05T13:05:59.140Z,2.63
2018-07-05T13:08:38.721Z,1.90
2018-07-05T13:11:18.549Z,1.30
2018-07-05T13:13:58.293Z,1.73
2018-07-05T13:16:38.011Z,1.20
2018-07-05T13:19:11.801Z,1.90
2018-07-05T13:21:51.444Z,2.63
2018-07-05T13:24:31.277Z,1.63
2018-07-05T13:27:11.066Z,2.97
2018-07-05T13:29:50.898Z,1.63
2018-07-05T13:32:30.622Z,1.60
2018-07-05T13:35:10.494Z,4.47
2018-07-05T13:37:50.257Z,2.43
2018-07-05T13:40:30.093Z,1.37
2018-07-05T13:43:09.783Z,1.00
2018-07-05T13:45:50.405Z,1.70
2018-07-05T13:48:30.306Z,3.23
2018-07-05T13:51:10.101Z,4.30
2018-07-05T13:53:49.910Z,1.90
2018-07-05T13:56:29.662Z,1.03
2018-07-05T13:59:09.494Z,2.37
2018-07-05T14:01:49.276Z,2.57
2018-07-05T14:04:29.023Z,3.90
2018-07-05T14:07:08.859Z,2.83
2018-07-05T14:09:48.702Z,1.47
2018-07-05T14:12:28.290Z,0.90
2018-07-05T14:15:08.093Z,1.43
2018-07-05T14:17:47.910Z,4.47
2018-07-05T14:20:27.909Z,1.43
2018-07-05T14:23:07.617Z,3.00
2018-07-05T14:25:47.457Z,2.10
2018-07-05T14:28:27.198Z,1.90
2018-07-05T14:31:07.002Z,1.90
2018-07-05T14:33:46.796Z,1.43
2018-07-05T14:36:26.636Z,3.53
2018-07-05T14:39:06.656Z,4.57
2018-07-05T14:41:46.823Z,2.17
2018-07-05T14:44:26.778Z,1.43
2018-07-05T14:47:06.629Z,3.17
2018-07-05T14:49:46.347Z,2.20
2018-07-05T14:52:26.166Z,4.43
2018-07-05T14:55:05.956Z,1.57
2018-07-05T14:57:45.638Z,2.00
2018-07-05T15:00:25.458Z,2.37
2018-07-05T15:03:05.055Z,4.80
2018-07-05T15:05:44.822Z,3.23
2018-07-05T15:08:24.677Z,2.60
2018-07-05T15:11:04.516Z,1.67
2018-07-05T15:13:45.279Z,3.60
2018-07-05T15:16:25.787Z,2.30
2018-07-05T15:19:05.434Z,1.77
2018-07-05T15:21:45.304Z,2.13
2018-07-05T15:24:25.038Z,3.33
2018-07-05T15:27:04.707Z,2.97
2018-07-05T15:29:44.434Z,2.50
2018-07-05T15:32:24.400Z,4.07
2018-07-05T15:35:04.049Z,4.03
2018-07-05T15:37:44.022Z,4.27
2018-07-05T15:40:23.738Z,2.60
2018-07-05T15:43:03.464Z,4.70
2018-07-05T15:45:43.288Z,4.03
2018-07-05T15:48:23.126Z,4.63
2018-07-05T15:51:03.711Z,5.40
2018-07-05T15:53:43.965Z,3.47
2018-07-05T15:56:23.678Z,2.93
2018-07-05T15:59:03.344Z,3.67
2018-07-05T16:01:43.085Z,2.63
2018-07-05T16:04:22.965Z,4.97
2018-07-05T16:07:02.745Z,4.93
2018-07-05T16:09:42.865Z,3.13
2018-07-05T16:12:22.658Z,3.73
2018-07-05T16:15:02.562Z,2.90
2018-07-05T16:17:42.466Z,4.23
2018-07-05T16:20:22.257Z,3.57
2018-07-05T16:23:01.934Z,5.47
2018-07-05T16:25:41.699Z,10.33
2018-07-05T16:28:21.531Z,5.00
2018-07-05T16:31:01.124Z,3.17
2018-07-05T16:33:40.822Z,4.10
2018-07-05T16:36:20.566Z,6.47
2018-07-05T16:39:00.343Z,6.50
2018-07-05T16:41:40.205Z,4.13
2018-07-05T16:44:19.948Z,5.40
2018-07-05T16:46:59.658Z,4.83
2018-07-05T16:49:39.510Z,3.73
2018-07-05T16:52:19.126Z,6.73
2018-07-05T16:54:58.777Z,6.57
2018-07-05T16:57:38.710Z,6.60
2018-07-05T17:00:18.566Z,4.47
2018-07-05T17:02:58.386Z,6.23
2018-07-05T17:05:38.269Z,5.10
2018-07-05T17:08:12.055Z,7.03
2018-07-05T17:10:51.781Z,5.87
2018-07-05T17:13:31.570Z,5.50
2018-07-05T17:16:11.538Z,4.53
2018-07-05T17:18:51.498Z,6.27
2018-07-05T17:21:31.333Z,5.43
2018-07-05T17:24:11.149Z,5.60
2018-07-05T17:26:50.957Z,4.37
2018-07-05T17:29:30.710Z,8.47
2018-07-05T17:32:04.596Z,5.97
2018-07-05T17:34:44.898Z,34.13
2018-07-05T17:37:24.545Z,18.37
2018-07-05T17:40:04.253Z,5.87
2018-07-05T17:42:44.039Z,29.00
2018-07-05T17:45:23.631Z,28.70
2018-07-05T17:48:03.376Z,13.20
2018-07-05T17:50:43.172Z,6.23
2018-07-05T17:53:22.945Z,5.20
2018-07-05T17:56:02.770Z,7.03
2018-07-05T17:58:42.553Z,5.00
2018-07-05T18:01:22.625Z,9.23
2018-07-05T18:04:02.405Z,5.60
2018-07-05T18:06:42.126Z,6.10
2018-07-05T18:09:21.999Z,8.77
2018-07-05T18:12:01.685Z,6.83
2018-07-05T18:14:41.377Z,6.33
2018-07-05T18:17:21.502Z,7.97
2018-07-05T18:20:01.351Z,7.90
2018-07-05T18:22:41.020Z,8.17
2018-07-05T18:25:21.014Z,6.50
2018-07-05T18:28:00.798Z,6.20
2018-07-05T18:30:40.513Z,7.37
2018-07-05T18:33:20.286Z,6.90
2018-07-05T18:36:00.234Z,6.47
2018-07-05T18:38:40.054Z,6.50
2018-07-05T18:41:19.990Z,6.83
2018-07-05T18:43:59.720Z,8.43
2018-07-05T18:46:33.637Z,6.50
2018-07-05T18:49:13.326Z,6.17
2018-07-05T18:51:53.098Z,8.13
2018-07-05T18:54:32.934Z,9.77
2018-07-05T18:57:12.745Z,9.00
2018-07-05T18:59:52.637Z,7.63
2018-07-05T19:02:32.382Z,8.47
2018-07-05T19:05:12.190Z,9.13
2018-07-05T19:07:52.007Z,6.70
2018-07-05T19:10:31.894Z,10.07
2018-07-05T19:13:11.805Z,10.60
2018-07-05T19:15:51.592Z,5.70
2018-07-05T19:18:31.471Z,6.07
2018-07-05T19:21:11.276Z,7.27
2018-07-05T19:23:51.007Z,5.83
2018-07-05T19:26:30.657Z,6.50
2018-07-05T19:29:10.418Z,6.47
2018-07-05T19:31:50.185Z,4.73
2018-07-05T19:34:29.866Z,6.70
2018-07-05T19:37:09.647Z,4.50
2018-07-05T19:39:49.314Z,5.23
2018-07-05T19:42:29.127Z,4.00
2018-07-05T19:45:08.968Z,4.43
2018-07-05T19:47:48.834Z,3.77
2018-07-05T19:50:28.526Z,5.47
2018-07-05T19:53:08.361Z,2.77
2018-07-05T19:55:42.294Z,5.13
2018-07-05T19:58:21.888Z,2.40
2018-07-05T20:01:01.767Z,3.10
2018-07-05T20:03:41.592Z,3.43
2018-07-05T20:06:21.419Z,2.83
2018-07-05T20:09:01.359Z,3.80
2018-07-05T20:11:46.593Z,5.97
2018-07-05T20:14:26.227Z,3.00
2018-07-05T20:17:05.980Z,3.43
2018-07-05T20:19:45.820Z,4.10
2018-07-05T20:22:25.632Z,4.27
2018-07-05T20:25:05.461Z,2.77
2018-07-05T20:27:45.329Z,4.00
2018-07-05T20:30:25.236Z,3.27
2018-07-05T20:33:05.054Z,3.97
2018-07-05T20:35:44.973Z,3.23
2018-07-05T20:38:24.694Z,3.67
2018-07-05T20:41:04.424Z,3.73
2018-07-05T20:43:44.302Z,3.63
2018-07-05T20:46:24.172Z,4.63
2018-07-05T20:49:03.853Z,3.57
2018-07-05T20:51:43.677Z,2.93
2018-07-05T20:54:23.429Z,3.40
2018-07-05T20:57:03.232Z,4.20
2018-07-05T20:59:43.087Z,4.37
2018-07-05T21:02:22.938Z,3.87
2018-07-05T21:05:02.790Z,3.97
2018-07-05T21:07:42.606Z,5.47
2018-07-05T21:10:22.318Z,3.90
2018-07-05T21:13:02.162Z,3.87
2018-07-05T21:15:42.033Z,4.47
2018-07-05T21:18:21.827Z,4.50
2018-07-05T21:21:01.671Z,6.53
2018-07-05T21:23:41.554Z,4.33
2018-07-05T21:26:21.305Z,5.23
2018-07-05T21:29:01.106Z,8.33
2018-07-05T21:31:40.866Z,5.47
2018-07-05T21:34:20.698Z,6.60
2018-07-05T21:37:00.578Z,5.90
2018-07-05T21:39:34.308Z,5.20
2018-07-05T21:42:14.241Z,7.13
2018-07-05T21:44:53.918Z,6.17
2018-07-05T21:47:33.649Z,6.23
2018-07-05T21:50:13.893Z,4.33
2018-07-05T21:52:53.510Z,3.90
2018-07-05T21:55:27.265Z,3.50
2018-07-05T21:58:06.993Z,5.73
2018-07-05T22:00:46.722Z,3.40
2018-07-05T22:03:26.566Z,2.83
2018-07-05T22:06:06.302Z,3.93
2018-07-05T22:08:46.028Z,2.00
2018-07-05T22:11:25.965Z,2.50
2018-07-05T22:14:05.780Z,3.47
2018-07-05T22:16:50.939Z,3.27
2018-07-05T22:19:36.046Z,2.30
2018-07-05T22:22:21.078Z,4.33
2018-07-05T22:25:06.276Z,2.77
2018-07-05T22:27:51.234Z,3.53
2018-07-05T22:30:36.283Z,2.60
2018-07-05T22:33:16.213Z,2.47
2018-07-05T22:35:56.021Z,2.70
2018-07-05T22:38:35.775Z,2.87
2018-07-05T22:41:15.658Z,4.73
2018-07-05T22:43:55.518Z,2.93
2018-07-05T22:46:35.417Z,2.67
2018-07-05T22:49:15.291Z,2.33
2018-07-05T22:51:55.033Z,4.10
2018-07-05T22:54:34.952Z,2.67
2018-07-05T22:57:14.712Z,4.17
2018-07-05T22:59:54.477Z,2.67
2018-07-05T23:02:28.331Z,2.10
2018-07-05T23:05:08.190Z,1.57
2018-07-05T23:07:48.019Z,1.63
2018-07-05T23:10:27.878Z,4.77
2018-07-05T23:13:07.687Z,2.17
2018-07-05T23:15:47.441Z,1.73
2018-07-05T23:18:27.279Z,1.07
2018-07-05T23:21:07.039Z,1.40
2018-07-05T23:23:46.746Z,2.23
2018-07-05T23:26:26.654Z,1.83
2018-07-05T23:29:06.518Z,1.80
2018-07-05T23:31:46.315Z,3.33
2018-07-05T23:34:26.178Z,3.53
2018-07-05T23:37:06.042Z,4.53
2018-07-05T23:39:45.711Z,4.07
2018-07-05T23:42:25.537Z,1.93
2018-07-05T23:45:05.179Z,3.90
2018-07-05T23:47:44.893Z,1.40
2018-07-05T23:50:24.718Z,6.63
2018-07-05T23:52:58.465Z,2.33
2018-07-05T23:55:38.213Z,4.60
2018-07-05T23:58:18.106Z,2.73
